< < Back
Terminal Aerodrome Forecast


Current Version              Previous Versions:   1  2  3  4  5  6  7  8  9  

Terminal Aerodrome Forecast

996
FTUS44 KHUN 031141
TAFHSV
TAF
KHSV 031141Z 0312/0412 12005KT 4SM -DZ BR OVC006
     FM031700 16007KT P6SM VCSH BKN008 OVC015
     FM040200 20013KT P6SM VCSH BKN008 OVC015
      TEMPO 0402/0406 4SM SHRA BR
     FM040800 20013KT 5SM BR OVC006=

Latest METAR

472
SAUS80 KWBC 032000 RRB
MTRHSV
METAR KHSV 031953Z 11004KT 8SM OVC006 16/13 A3005 RMK AO2 DZE49 SLP173
P0000 T01560133


USA.gov is the U.S. government's official web portal to all federal, state and local government web resources and services.